Time;durP1;ratioP1;P1;durP2;ratioP2;P2;SDS_P1;SDS_P2;PMS_P1;PMS_P2;Temp;Humidity;BMP_temperature;BMP_pressure;BME280_temperature;BME280_humidity;BME280_pressure;Samples;Min_cycle;Max_cycle;Signal;HPM_P1;HPM_P2
2023/12/18 00:02:41;;;;;;;23.58;13.40;;;;;;;;;;10301505;28;20754;-69
2023/12/18 00:07:38;;;;;;;22.73;12.50;;;;;;;;;;10291162;28;20506;-68
2023/12/18 00:12:36;;;;;;;28.65;13.10;;;;;;;;;;10296129;28;20143;-69
2023/12/18 00:17:32;;;;;;;18.77;12.70;;;;;;;;;;10289605;28;20044;-70
2023/12/18 00:22:29;;;;;;;29.77;15.07;;;;;;;;;;10297629;28;20463;-71
2023/12/18 00:27:25;;;;;;;18.77;11.70;;;;;;;;;;10276699;28;20052;-70
2023/12/18 00:32:22;;;;;;;26.50;14.70;;;;;;;;;;10283830;28;20045;-69
2023/12/18 00:37:18;;;;;;;26.27;14.38;;;;;;;;;;10272336;28;20049;-69
2023/12/18 00:42:15;;;;;;;24.13;13.48;;;;;;;;;;10288039;28;20048;-70
2023/12/18 00:47:11;;;;;;;39.70;16.58;;;;;;;;;;10288432;28;20071;-70
2023/12/18 00:52:08;;;;;;;30.05;15.05;;;;;;;;;;10297767;28;20048;-72
2023/12/18 00:57:04;;;;;;;27.63;13.90;;;;;;;;;;10299404;28;20696;-73
2023/12/18 01:02:01;;;;;;;21.25;13.80;;;;;;;;;;10288548;28;20051;-70
2023/12/18 01:06:57;;;;;;;25.42;13.82;;;;;;;;;;10301175;28;20584;-71
2023/12/18 01:11:53;;;;;;;33.75;14.93;;;;;;;;;;10286945;28;20053;-70
2023/12/18 01:16:52;;;;;;;24.70;13.80;;;;;;;;;;10286050;28;20056;-72
2023/12/18 01:37:34;;;;;;;26.57;14.40;;;;;;;;;;10143177;26;20045;-70
2023/12/18 01:42:31;;;;;;;25.75;13.77;;;;;;;;;;10214634;28;20111;-71
2023/12/18 01:47:28;;;;;;;28.05;14.73;;;;;;;;;;10217416;28;20049;-74
2023/12/18 01:52:25;;;;;;;30.60;15.40;;;;;;;;;;10217595;28;20045;-72
2023/12/18 01:57:23;;;;;;;29.33;15.00;;;;;;;;;;10221832;28;20057;-72
2023/12/18 02:02:19;;;;;;;29.55;15.48;;;;;;;;;;10227945;28;20054;-72
2023/12/18 02:12:26;;;;;;;30.30;15.32;;;;;;;;;;10780778;22;20048;-69
2023/12/18 02:17:23;;;;;;;27.58;15.57;;;;;;;;;;10248046;28;20046;-70
2023/12/18 02:22:20;;;;;;;28.13;16.60;;;;;;;;;;10256643;28;20049;-71
2023/12/18 02:27:16;;;;;;;36.38;17.10;;;;;;;;;;10253808;28;20056;-70
2023/12/18 02:32:12;;;;;;;30.77;16.38;;;;;;;;;;10262634;28;20055;-70
2023/12/18 02:37:09;;;;;;;28.35;17.98;;;;;;;;;;10258047;28;20045;-69
2023/12/18 02:42:05;;;;;;;34.80;18.75;;;;;;;;;;10338451;22;20068;-69
2023/12/18 02:47:01;;;;;;;32.53;18.48;;;;;;;;;;10298305;28;20083;-70
2023/12/18 02:51:58;;;;;;;36.70;18.35;;;;;;;;;;10360938;22;20094;-70
2023/12/18 02:56:54;;;;;;;38.00;18.95;;;;;;;;;;10294385;28;20687;-71
2023/12/18 03:01:51;;;;;;;33.38;18.10;;;;;;;;;;10257669;28;20052;-70
2023/12/18 03:06:47;;;;;;;31.45;17.50;;;;;;;;;;10233817;28;20048;-68
2023/12/18 03:11:44;;;;;;;33.90;17.20;;;;;;;;;;10195085;22;20460;-69
2023/12/18 03:16:40;;;;;;;30.70;16.83;;;;;;;;;;10161229;28;20105;-70
2023/12/18 03:21:53;;;;;;;38.33;18.52;;;;;;;;;;10222450;22;20052;-70
2023/12/18 03:26:50;;;;;;;38.80;18.05;;;;;;;;;;10242322;28;20049;-71
2023/12/18 03:31:46;;;;;;;29.17;17.90;;;;;;;;;;10255214;28;20083;-70
2023/12/18 03:36:42;;;;;;;26.02;18.33;;;;;;;;;;10260280;28;20072;-72
2023/12/18 03:41:39;;;;;;;30.15;18.45;;;;;;;;;;10256093;28;20044;-71
2023/12/18 03:46:35;;;;;;;30.48;19.50;;;;;;;;;;10252335;28;20055;-71
2023/12/18 03:51:32;;;;;;;39.95;19.67;;;;;;;;;;10257826;28;20739;-71
2023/12/18 03:56:29;;;;;;;38.30;18.52;;;;;;;;;;10256456;28;20056;-70
2023/12/18 04:01:31;;;;;;;32.10;20.63;;;;;;;;;;10265957;28;20057;-72
2023/12/18 04:06:27;;;;;;;37.63;19.48;;;;;;;;;;10246463;28;20054;-72
2023/12/18 04:11:24;;;;;;;31.55;19.73;;;;;;;;;;10240996;28;20053;-71
2023/12/18 04:16:20;;;;;;;35.72;20.67;;;;;;;;;;10255309;28;20143;-69
2023/12/18 04:21:16;;;;;;;33.83;21.13;;;;;;;;;;10249083;28;20470;-69
2023/12/18 04:26:13;;;;;;;38.25;20.38;;;;;;;;;;10257365;28;20478;-69
2023/12/18 04:31:10;;;;;;;30.77;20.67;;;;;;;;;;10255375;28;20064;-70
2023/12/18 04:36:06;;;;;;;32.30;21.95;;;;;;;;;;10233418;28;20068;-75
2023/12/18 04:41:03;;;;;;;40.03;21.17;;;;;;;;;;10251093;28;20049;-76
2023/12/18 04:45:59;;;;;;;27.55;21.10;;;;;;;;;;10241869;28;20060;-75
2023/12/18 20:40:12;;;;;;;57.08;34.15;;;;;;;;;;9824552;29;20073;-69
2023/12/18 20:45:11;;;;;;;60.75;36.22;;;;;;;;;;9796935;29;20058;-70
2023/12/18 20:50:07;;;;;;;64.45;33.83;;;;;;;;;;9793591;29;20059;-70
2023/12/18 20:55:06;;;;;;;63.08;37.13;;;;;;;;;;9777534;29;20484;-70
2023/12/18 21:00:20;;;;;;;59.03;34.95;;;;;;;;;;9822106;23;20667;-69
2023/12/18 21:05:22;;;;;;;60.75;35.38;;;;;;;;;;9921040;29;20057;-70
2023/12/18 21:10:19;;;;;;;56.35;33.53;;;;;;;;;;9910884;29;20156;-70
2023/12/18 21:15:16;;;;;;;59.17;37.08;;;;;;;;;;9881251;29;20050;-69
2023/12/18 21:20:12;;;;;;;64.22;37.00;;;;;;;;;;9888194;29;20535;-70
2023/12/18 21:25:09;;;;;;;61.10;35.22;;;;;;;;;;9881020;29;20700;-69
2023/12/18 21:30:07;;;;;;;59.20;34.92;;;;;;;;;;9874319;29;20049;-68
2023/12/18 21:35:03;;;;;;;58.78;33.92;;;;;;;;;;9881853;29;20085;-69
2023/12/18 21:39:59;;;;;;;56.92;34.22;;;;;;;;;;9880871;29;20532;-68
2023/12/18 21:44:56;;;;;;;56.42;33.83;;;;;;;;;;9879936;29;20510;-69
2023/12/18 21:49:52;;;;;;;62.92;34.72;;;;;;;;;;9881363;29;20052;-70
2023/12/18 21:54:49;;;;;;;54.65;34.28;;;;;;;;;;9873656;29;20050;-68
2023/12/18 21:59:45;;;;;;;58.75;32.08;;;;;;;;;;9887191;29;20108;-68
2023/12/18 22:04:41;;;;;;;52.55;31.63;;;;;;;;;;9887367;29;20114;-68
2023/12/18 22:09:39;;;;;;;53.70;32.80;;;;;;;;;;9880218;29;20124;-68
2023/12/18 22:14:35;;;;;;;54.00;33.13;;;;;;;;;;9876211;29;20050;-68
2023/12/18 22:19:32;;;;;;;53.30;35.00;;;;;;;;;;9866290;29;20466;-68
2023/12/18 22:24:29;;;;;;;46.95;28.40;;;;;;;;;;9881404;29;20156;-69
2023/12/18 22:29:25;;;;;;;53.25;33.47;;;;;;;;;;9871030;29;20053;-69
2023/12/18 22:34:21;;;;;;;50.47;31.65;;;;;;;;;;9881219;29;20085;-69
2023/12/18 22:39:18;;;;;;;51.15;29.73;;;;;;;;;;9880211;29;20398;-69
2023/12/18 22:44:14;;;;;;;47.90;30.48;;;;;;;;;;9880804;29;20050;-71
2023/12/18 22:49:10;;;;;;;49.08;29.67;;;;;;;;;;9874741;29;20060;-70
2023/12/18 22:54:07;;;;;;;46.17;28.77;;;;;;;;;;9872232;29;20080;-67
2023/12/18 22:59:03;;;;;;;42.67;27.70;;;;;;;;;;9879768;29;20517;-66
2023/12/18 23:04:00;;;;;;;49.10;29.60;;;;;;;;;;9882027;29;20576;-67
2023/12/18 23:08:57;;;;;;;54.67;33.13;;;;;;;;;;9872032;29;20073;-71
2023/12/18 23:13:53;;;;;;;56.30;33.78;;;;;;;;;;9878306;29;20105;-68
2023/12/18 23:18:49;;;;;;;62.55;32.42;;;;;;;;;;9861728;29;20046;-68
2023/12/18 23:23:46;;;;;;;54.47;34.95;;;;;;;;;;9869560;29;20137;-68
2023/12/18 23:28:42;;;;;;;51.60;31.27;;;;;;;;;;9858182;29;20054;-67
2023/12/18 23:33:38;;;;;;;56.90;31.60;;;;;;;;;;9861667;29;20443;-69
2023/12/18 23:38:35;;;;;;;56.78;31.92;;;;;;;;;;9865607;29;20045;-69
2023/12/18 23:43:35;;;;;;;49.78;27.42;;;;;;;;;;9874549;29;20057;-72
2023/12/18 23:48:31;;;;;;;47.70;25.77;;;;;;;;;;9879832;29;20061;-71
2023/12/18 23:53:27;;;;;;;48.55;29.83;;;;;;;;;;9872581;29;20073;-69
2023/12/18 23:58:24;;;;;;;51.20;30.73;;;;;;;;;;9858738;29;20505;-69
